sensor_id;sensor_type;location;lat;lon;timestamp;P1;durP1;ratioP1;P2;durP2;ratioP2
25153;SDS011;47555;51.038;6.280;2022-07-12T00:01:05;1.70;;;1.60;;
25153;SDS011;47555;51.038;6.280;2022-07-12T00:03:30;2.20;;;2.00;;
25153;SDS011;47555;51.038;6.280;2022-07-12T00:05:56;2.03;;;1.83;;
25153;SDS011;47555;51.038;6.280;2022-07-12T00:08:22;2.20;;;2.00;;
25153;SDS011;47555;51.038;6.280;2022-07-12T00:10:48;2.60;;;2.33;;
25153;SDS011;47555;51.038;6.280;2022-07-12T00:13:14;3.05;;;2.22;;
25153;SDS011;47555;51.038;6.280;2022-07-12T00:15:40;2.00;;;1.90;;
25153;SDS011;47555;51.038;6.280;2022-07-12T00:18:06;2.08;;;1.67;;
25153;SDS011;47555;51.038;6.280;2022-07-12T00:20:32;2.20;;;2.00;;
25153;SDS011;47555;51.038;6.280;2022-07-12T00:22:57;2.55;;;1.95;;
25153;SDS011;47555;51.038;6.280;2022-07-12T00:25:23;3.97;;;1.77;;
25153;SDS011;47555;51.038;6.280;2022-07-12T00:27:50;2.75;;;1.90;;
25153;SDS011;47555;51.038;6.280;2022-07-12T00:30:15;2.10;;;1.90;;
25153;SDS011;47555;51.038;6.280;2022-07-12T00:32:41;2.67;;;2.00;;
25153;SDS011;47555;51.038;6.280;2022-07-12T00:35:06;2.17;;;1.83;;
25153;SDS011;47555;51.038;6.280;2022-07-12T00:37:32;2.22;;;2.03;;
25153;SDS011;47555;51.038;6.280;2022-07-12T00:39:58;2.45;;;1.80;;
25153;SDS011;47555;51.038;6.280;2022-07-12T00:42:25;2.25;;;2.05;;
25153;SDS011;47555;51.038;6.280;2022-07-12T00:44:51;3.58;;;1.88;;
25153;SDS011;47555;51.038;6.280;2022-07-12T00:47:25;2.33;;;2.00;;
25153;SDS011;47555;51.038;6.280;2022-07-12T00:49:58;3.20;;;2.08;;
25153;SDS011;47555;51.038;6.280;2022-07-12T00:52:24;2.45;;;2.17;;
25153;SDS011;47555;51.038;6.280;2022-07-12T00:54:49;2.30;;;2.10;;
25153;SDS011;47555;51.038;6.280;2022-07-12T00:57:15;2.15;;;1.95;;
25153;SDS011;47555;51.038;6.280;2022-07-12T00:59:41;2.15;;;1.95;;
25153;SDS011;47555;51.038;6.280;2022-07-12T01:02:06;2.67;;;2.47;;
25153;SDS011;47555;51.038;6.280;2022-07-12T01:04:33;3.03;;;2.13;;
25153;SDS011;47555;51.038;6.280;2022-07-12T01:06:59;2.67;;;2.47;;
25153;SDS011;47555;51.038;6.280;2022-07-12T01:09:25;2.90;;;2.53;;
25153;SDS011;47555;51.038;6.280;2022-07-12T01:11:51;2.63;;;2.42;;
25153;SDS011;47555;51.038;6.280;2022-07-12T01:14:17;2.97;;;2.47;;
25153;SDS011;47555;51.038;6.280;2022-07-12T01:16:43;2.38;;;2.15;;
25153;SDS011;47555;51.038;6.280;2022-07-12T01:19:08;2.75;;;2.38;;
25153;SDS011;47555;51.038;6.280;2022-07-12T01:21:40;2.75;;;2.20;;
25153;SDS011;47555;51.038;6.280;2022-07-12T01:24:07;2.88;;;2.55;;
25153;SDS011;47555;51.038;6.280;2022-07-12T01:26:33;2.50;;;2.30;;
25153;SDS011;47555;51.038;6.280;2022-07-12T01:28:59;2.40;;;2.20;;
25153;SDS011;47555;51.038;6.280;2022-07-12T01:31:25;2.55;;;2.35;;
25153;SDS011;47555;51.038;6.280;2022-07-12T01:33:51;2.90;;;2.60;;
25153;SDS011;47555;51.038;6.280;2022-07-12T01:36:17;2.70;;;2.40;;
25153;SDS011;47555;51.038;6.280;2022-07-12T01:38:42;3.10;;;2.80;;
25153;SDS011;47555;51.038;6.280;2022-07-12T01:41:08;2.78;;;2.40;;
25153;SDS011;47555;51.038;6.280;2022-07-12T01:43:34;2.78;;;2.58;;
25153;SDS011;47555;51.038;6.280;2022-07-12T01:46:00;2.92;;;2.50;;
25153;SDS011;47555;51.038;6.280;2022-07-12T01:48:26;2.88;;;2.40;;
25153;SDS011;47555;51.038;6.280;2022-07-12T01:50:51;2.60;;;2.40;;
25153;SDS011;47555;51.038;6.280;2022-07-12T01:53:17;3.28;;;2.63;;
25153;SDS011;47555;51.038;6.280;2022-07-12T01:55:43;3.15;;;2.35;;
25153;SDS011;47555;51.038;6.280;2022-07-12T01:58:09;2.65;;;2.45;;
25153;SDS011;47555;51.038;6.280;2022-07-12T02:00:38;2.95;;;2.60;;
25153;SDS011;47555;51.038;6.280;2022-07-12T02:03:04;3.90;;;2.53;;
25153;SDS011;47555;51.038;6.280;2022-07-12T02:05:29;3.10;;;2.90;;
25153;SDS011;47555;51.038;6.280;2022-07-12T02:07:55;3.20;;;2.60;;
25153;SDS011;47555;51.038;6.280;2022-07-12T02:10:21;4.75;;;2.67;;
25153;SDS011;47555;51.038;6.280;2022-07-12T02:12:46;3.40;;;2.60;;
25153;SDS011;47555;51.038;6.280;2022-07-12T02:15:12;2.90;;;2.60;;
25153;SDS011;47555;51.038;6.280;2022-07-12T02:17:37;2.47;;;2.28;;
25153;SDS011;47555;51.038;6.280;2022-07-12T02:20:03;2.55;;;2.30;;
25153;SDS011;47555;51.038;6.280;2022-07-12T02:22:30;2.42;;;2.22;;
25153;SDS011;47555;51.038;6.280;2022-07-12T02:24:55;2.63;;;2.42;;
25153;SDS011;47555;51.038;6.280;2022-07-12T02:27:21;3.22;;;2.83;;
25153;SDS011;47555;51.038;6.280;2022-07-12T02:29:46;3.95;;;3.10;;
25153;SDS011;47555;51.038;6.280;2022-07-12T02:32:12;3.17;;;2.72;;
25153;SDS011;47555;51.038;6.280;2022-07-12T02:34:38;3.38;;;3.08;;
25153;SDS011;47555;51.038;6.280;2022-07-12T02:37:04;3.88;;;2.72;;
25153;SDS011;47555;51.038;6.280;2022-07-12T02:39:29;3.05;;;2.72;;
25153;SDS011;47555;51.038;6.280;2022-07-12T02:41:55;2.70;;;2.35;;
25153;SDS011;47555;51.038;6.280;2022-07-12T02:44:20;3.75;;;3.08;;
25153;SDS011;47555;51.038;6.280;2022-07-12T02:46:46;4.43;;;2.97;;
25153;SDS011;47555;51.038;6.280;2022-07-12T02:49:12;4.55;;;3.38;;
25153;SDS011;47555;51.038;6.280;2022-07-12T02:51:37;3.08;;;2.78;;
25153;SDS011;47555;51.038;6.280;2022-07-12T02:54:03;3.53;;;2.90;;
25153;SDS011;47555;51.038;6.280;2022-07-12T02:56:28;3.40;;;2.95;;
25153;SDS011;47555;51.038;6.280;2022-07-12T02:58:54;3.80;;;3.20;;
25153;SDS011;47555;51.038;6.280;2022-07-12T03:01:19;3.17;;;2.83;;
25153;SDS011;47555;51.038;6.280;2022-07-12T03:03:45;4.60;;;3.17;;
25153;SDS011;47555;51.038;6.280;2022-07-12T03:06:11;5.65;;;3.75;;
25153;SDS011;47555;51.038;6.280;2022-07-12T03:08:37;4.28;;;3.65;;
25153;SDS011;47555;51.038;6.280;2022-07-12T03:11:03;3.97;;;3.58;;
25153;SDS011;47555;51.038;6.280;2022-07-12T03:13:29;4.75;;;3.55;;
25153;SDS011;47555;51.038;6.280;2022-07-12T03:15:54;4.82;;;3.40;;
25153;SDS011;47555;51.038;6.280;2022-07-12T03:18:20;4.32;;;3.72;;
25153;SDS011;47555;51.038;6.280;2022-07-12T03:20:45;4.90;;;3.80;;
25153;SDS011;47555;51.038;6.280;2022-07-12T03:23:11;6.00;;;3.45;;
25153;SDS011;47555;51.038;6.280;2022-07-12T03:25:36;4.18;;;3.53;;
25153;SDS011;47555;51.038;6.280;2022-07-12T03:28:02;5.60;;;3.85;;
25153;SDS011;47555;51.038;6.280;2022-07-12T03:30:28;5.25;;;4.13;;
25153;SDS011;47555;51.038;6.280;2022-07-12T03:32:53;4.45;;;3.40;;
25153;SDS011;47555;51.038;6.280;2022-07-12T03:35:19;5.43;;;4.05;;
25153;SDS011;47555;51.038;6.280;2022-07-12T03:37:45;5.43;;;3.55;;
25153;SDS011;47555;51.038;6.280;2022-07-12T03:40:13;3.95;;;3.53;;
25153;SDS011;47555;51.038;6.280;2022-07-12T03:42:41;3.72;;;3.30;;
25153;SDS011;47555;51.038;6.280;2022-07-12T03:45:07;4.97;;;3.65;;
25153;SDS011;47555;51.038;6.280;2022-07-12T03:47:33;5.93;;;3.70;;
25153;SDS011;47555;51.038;6.280;2022-07-12T03:50:03;5.40;;;3.45;;
25153;SDS011;47555;51.038;6.280;2022-07-12T03:52:30;6.90;;;3.60;;
25153;SDS011;47555;51.038;6.280;2022-07-12T03:54:56;5.15;;;3.80;;
25153;SDS011;47555;51.038;6.280;2022-07-12T03:57:22;6.15;;;4.30;;
25153;SDS011;47555;51.038;6.280;2022-07-12T03:59:49;4.53;;;3.55;;
25153;SDS011;47555;51.038;6.280;2022-07-12T04:02:15;5.00;;;3.58;;
25153;SDS011;47555;51.038;6.280;2022-07-12T04:04:40;4.60;;;3.58;;
25153;SDS011;47555;51.038;6.280;2022-07-12T04:07:06;5.50;;;3.78;;
25153;SDS011;47555;51.038;6.280;2022-07-12T04:09:32;4.90;;;3.60;;
25153;SDS011;47555;51.038;6.280;2022-07-12T04:11:58;5.93;;;3.83;;
25153;SDS011;47555;51.038;6.280;2022-07-12T04:14:23;6.45;;;3.97;;
25153;SDS011;47555;51.038;6.280;2022-07-12T04:16:49;7.90;;;3.95;;
25153;SDS011;47555;51.038;6.280;2022-07-12T04:19:14;5.82;;;4.00;;
25153;SDS011;47555;51.038;6.280;2022-07-12T04:21:40;5.18;;;3.53;;
25153;SDS011;47555;51.038;6.280;2022-07-12T04:24:05;7.38;;;4.10;;
25153;SDS011;47555;51.038;6.280;2022-07-12T04:26:31;4.47;;;3.53;;
25153;SDS011;47555;51.038;6.280;2022-07-12T04:28:57;5.05;;;4.35;;
25153;SDS011;47555;51.038;6.280;2022-07-12T04:31:23;5.18;;;3.75;;
25153;SDS011;47555;51.038;6.280;2022-07-12T04:33:48;6.30;;;3.67;;
25153;SDS011;47555;51.038;6.280;2022-07-12T04:36:14;6.85;;;4.30;;
25153;SDS011;47555;51.038;6.280;2022-07-12T04:38:40;5.80;;;4.18;;
25153;SDS011;47555;51.038;6.280;2022-07-12T04:41:05;5.30;;;4.07;;
25153;SDS011;47555;51.038;6.280;2022-07-12T04:43:31;9.30;;;5.43;;
25153;SDS011;47555;51.038;6.280;2022-07-12T04:46:04;8.98;;;4.97;;
25153;SDS011;47555;51.038;6.280;2022-07-12T04:48:31;6.70;;;4.82;;
25153;SDS011;47555;51.038;6.280;2022-07-12T04:50:56;9.23;;;4.75;;
25153;SDS011;47555;51.038;6.280;2022-07-12T04:53:22;12.25;;;5.80;;
25153;SDS011;47555;51.038;6.280;2022-07-12T04:55:47;9.32;;;6.22;;
25153;SDS011;47555;51.038;6.280;2022-07-12T04:58:13;10.18;;;6.35;;
25153;SDS011;47555;51.038;6.280;2022-07-12T05:00:39;13.52;;;6.95;;
25153;SDS011;47555;51.038;6.280;2022-07-12T05:03:05;11.73;;;6.40;;
25153;SDS011;47555;51.038;6.280;2022-07-12T05:05:30;11.02;;;5.65;;
25153;SDS011;47555;51.038;6.280;2022-07-12T05:07:56;10.27;;;6.05;;
25153;SDS011;47555;51.038;6.280;2022-07-12T05:10:21;10.85;;;6.53;;
25153;SDS011;47555;51.038;6.280;2022-07-12T05:12:47;12.40;;;6.35;;
25153;SDS011;47555;51.038;6.280;2022-07-12T05:15:12;8.70;;;6.05;;
25153;SDS011;47555;51.038;6.280;2022-07-12T05:17:38;12.15;;;7.88;;
25153;SDS011;47555;51.038;6.280;2022-07-12T05:20:03;9.52;;;6.22;;
25153;SDS011;47555;51.038;6.280;2022-07-12T05:22:29;10.38;;;6.70;;
25153;SDS011;47555;51.038;6.280;2022-07-12T05:24:55;10.02;;;6.20;;
25153;SDS011;47555;51.038;6.280;2022-07-12T05:27:20;11.02;;;6.57;;
25153;SDS011;47555;51.038;6.280;2022-07-12T05:29:46;15.32;;;7.70;;
25153;SDS011;47555;51.038;6.280;2022-07-12T05:32:11;12.88;;;7.47;;
25153;SDS011;47555;51.038;6.280;2022-07-12T05:34:37;9.20;;;6.50;;
25153;SDS011;47555;51.038;6.280;2022-07-12T05:37:03;8.75;;;6.95;;
25153;SDS011;47555;51.038;6.280;2022-07-12T05:39:29;13.07;;;7.70;;
25153;SDS011;47555;51.038;6.280;2022-07-12T05:41:54;11.85;;;6.47;;
25153;SDS011;47555;51.038;6.280;2022-07-12T05:44:21;11.45;;;7.13;;
25153;SDS011;47555;51.038;6.280;2022-07-12T05:46:47;14.38;;;7.25;;
25153;SDS011;47555;51.038;6.280;2022-07-12T05:49:13;8.32;;;6.60;;
25153;SDS011;47555;51.038;6.280;2022-07-12T05:51:39;14.35;;;7.30;;
25153;SDS011;47555;51.038;6.280;2022-07-12T05:54:23;12.50;;;7.53;;
25153;SDS011;47555;51.038;6.280;2022-07-12T05:56:49;11.90;;;7.75;;
25153;SDS011;47555;51.038;6.280;2022-07-12T05:59:16;8.80;;;7.00;;
25153;SDS011;47555;51.038;6.280;2022-07-12T06:01:42;17.17;;;7.85;;
25153;SDS011;47555;51.038;6.280;2022-07-12T06:04:07;10.30;;;7.60;;
25153;SDS011;47555;51.038;6.280;2022-07-12T06:06:33;11.18;;;6.75;;
25153;SDS011;47555;51.038;6.280;2022-07-12T06:08:58;7.45;;;6.18;;
25153;SDS011;47555;51.038;6.280;2022-07-12T06:11:24;8.48;;;5.93;;
25153;SDS011;47555;51.038;6.280;2022-07-12T06:13:49;11.32;;;6.88;;
25153;SDS011;47555;51.038;6.280;2022-07-12T06:16:15;8.90;;;6.18;;
25153;SDS011;47555;51.038;6.280;2022-07-12T06:18:41;7.57;;;6.20;;
25153;SDS011;47555;51.038;6.280;2022-07-12T06:21:07;7.93;;;6.10;;
25153;SDS011;47555;51.038;6.280;2022-07-12T06:23:33;9.90;;;5.45;;
25153;SDS011;47555;51.038;6.280;2022-07-12T06:25:58;8.25;;;6.00;;
25153;SDS011;47555;51.038;6.280;2022-07-12T06:28:24;8.63;;;5.75;;
25153;SDS011;47555;51.038;6.280;2022-07-12T06:30:49;10.05;;;5.88;;
25153;SDS011;47555;51.038;6.280;2022-07-12T06:33:15;10.10;;;5.40;;
25153;SDS011;47555;51.038;6.280;2022-07-12T06:35:40;7.70;;;5.93;;
25153;SDS011;47555;51.038;6.280;2022-07-12T06:38:06;9.15;;;7.22;;
25153;SDS011;47555;51.038;6.280;2022-07-12T06:40:31;8.10;;;6.30;;
25153;SDS011;47555;51.038;6.280;2022-07-12T06:42:57;9.68;;;6.95;;
25153;SDS011;47555;51.038;6.280;2022-07-12T06:45:23;6.43;;;5.82;;
25153;SDS011;47555;51.038;6.280;2022-07-12T06:47:48;8.63;;;6.25;;
25153;SDS011;47555;51.038;6.280;2022-07-12T06:50:14;9.20;;;6.80;;
25153;SDS011;47555;51.038;6.280;2022-07-12T06:52:39;9.57;;;6.32;;
25153;SDS011;47555;51.038;6.280;2022-07-12T06:55:06;9.32;;;6.63;;
25153;SDS011;47555;51.038;6.280;2022-07-12T06:57:32;7.75;;;6.20;;
25153;SDS011;47555;51.038;6.280;2022-07-12T06:59:58;8.70;;;6.30;;
25153;SDS011;47555;51.038;6.280;2022-07-12T07:02:24;6.60;;;5.65;;
25153;SDS011;47555;51.038;6.280;2022-07-12T07:04:50;5.65;;;4.75;;
25153;SDS011;47555;51.038;6.280;2022-07-12T07:07:16;8.30;;;4.82;;
25153;SDS011;47555;51.038;6.280;2022-07-12T07:09:42;9.57;;;5.95;;
25153;SDS011;47555;51.038;6.280;2022-07-12T07:12:08;6.53;;;5.57;;
25153;SDS011;47555;51.038;6.280;2022-07-12T07:14:33;7.65;;;6.35;;
25153;SDS011;47555;51.038;6.280;2022-07-12T07:16:59;6.20;;;5.57;;
25153;SDS011;47555;51.038;6.280;2022-07-12T07:19:24;6.65;;;5.65;;
25153;SDS011;47555;51.038;6.280;2022-07-12T07:21:51;8.05;;;6.30;;
25153;SDS011;47555;51.038;6.280;2022-07-12T07:24:17;7.60;;;5.93;;
25153;SDS011;47555;51.038;6.280;2022-07-12T07:26:43;6.80;;;6.10;;
25153;SDS011;47555;51.038;6.280;2022-07-12T07:29:08;7.50;;;6.00;;
25153;SDS011;47555;51.038;6.280;2022-07-12T07:31:52;7.00;;;5.88;;
25153;SDS011;47555;51.038;6.280;2022-07-12T07:34:18;6.40;;;5.72;;
25153;SDS011;47555;51.038;6.280;2022-07-12T07:36:43;11.52;;;6.55;;
25153;SDS011;47555;51.038;6.280;2022-07-12T07:39:09;6.40;;;5.80;;
25153;SDS011;47555;51.038;6.280;2022-07-12T07:41:37;7.72;;;5.88;;
25153;SDS011;47555;51.038;6.280;2022-07-12T07:44:02;7.95;;;5.70;;
25153;SDS011;47555;51.038;6.280;2022-07-12T07:46:28;6.22;;;5.63;;
25153;SDS011;47555;51.038;6.280;2022-07-12T07:48:53;6.53;;;5.32;;
25153;SDS011;47555;51.038;6.280;2022-07-12T07:51:19;6.22;;;5.57;;
25153;SDS011;47555;51.038;6.280;2022-07-12T07:53:45;5.18;;;4.68;;
25153;SDS011;47555;51.038;6.280;2022-07-12T07:56:10;6.30;;;4.97;;
25153;SDS011;47555;51.038;6.280;2022-07-12T07:58:36;5.93;;;5.03;;
25153;SDS011;47555;51.038;6.280;2022-07-12T08:01:01;5.40;;;4.90;;
25153;SDS011;47555;51.038;6.280;2022-07-12T08:03:27;5.40;;;4.90;;
25153;SDS011;47555;51.038;6.280;2022-07-12T08:05:53;6.38;;;5.72;;
25153;SDS011;47555;51.038;6.280;2022-07-12T08:08:22;6.75;;;6.15;;
25153;SDS011;47555;51.038;6.280;2022-07-12T08:10:49;5.72;;;5.13;;
25153;SDS011;47555;51.038;6.280;2022-07-12T08:13:17;6.55;;;5.68;;
25153;SDS011;47555;51.038;6.280;2022-07-12T08:15:43;5.97;;;4.63;;
25153;SDS011;47555;51.038;6.280;2022-07-12T08:18:09;4.22;;;3.72;;
25153;SDS011;47555;51.038;6.280;2022-07-12T08:20:34;5.30;;;4.80;;
25153;SDS011;47555;51.038;6.280;2022-07-12T08:23:00;4.03;;;3.72;;
25153;SDS011;47555;51.038;6.280;2022-07-12T08:25:25;4.65;;;3.65;;
25153;SDS011;47555;51.038;6.280;2022-07-12T08:27:51;4.93;;;3.97;;
25153;SDS011;47555;51.038;6.280;2022-07-12T08:30:17;4.80;;;3.40;;
25153;SDS011;47555;51.038;6.280;2022-07-12T08:32:43;5.07;;;3.80;;
25153;SDS011;47555;51.038;6.280;2022-07-12T08:35:09;3.35;;;3.00;;
25153;SDS011;47555;51.038;6.280;2022-07-12T08:37:35;2.88;;;2.55;;
25153;SDS011;47555;51.038;6.280;2022-07-12T08:40:01;3.30;;;2.97;;
25153;SDS011;47555;51.038;6.280;2022-07-12T08:42:27;1.83;;;1.73;;
25153;SDS011;47555;51.038;6.280;2022-07-12T08:44:53;4.32;;;2.70;;
25153;SDS011;47555;51.038;6.280;2022-07-12T08:47:20;4.32;;;3.28;;
25153;SDS011;47555;51.038;6.280;2022-07-12T08:52:40;2.63;;;2.40;;
25153;SDS011;47555;51.038;6.280;2022-07-12T08:55:19;2.88;;;2.58;;
25153;SDS011;47555;51.038;6.280;2022-07-12T08:57:49;3.15;;;2.50;;
25153;SDS011;47555;51.038;6.280;2022-07-12T09:00:19;2.35;;;2.15;;
25153;SDS011;47555;51.038;6.280;2022-07-12T09:02:47;3.15;;;2.10;;
25153;SDS011;47555;51.038;6.280;2022-07-12T09:05:13;1.95;;;1.85;;
25153;SDS011;47555;51.038;6.280;2022-07-12T09:07:40;5.20;;;2.10;;
25153;SDS011;47555;51.038;6.280;2022-07-12T09:10:06;2.53;;;2.00;;
25153;SDS011;47555;51.038;6.280;2022-07-12T09:12:33;2.67;;;2.40;;
25153;SDS011;47555;51.038;6.280;2022-07-12T09:18:00;2.75;;;2.30;;
25153;SDS011;47555;51.038;6.280;2022-07-12T09:20:31;3.42;;;2.53;;
25153;SDS011;47555;51.038;6.280;2022-07-12T09:23:04;3.30;;;2.63;;
25153;SDS011;47555;51.038;6.280;2022-07-12T09:25:34;2.90;;;2.70;;
25153;SDS011;47555;51.038;6.280;2022-07-12T09:28:02;2.67;;;2.47;;
25153;SDS011;47555;51.038;6.280;2022-07-12T09:30:29;3.38;;;2.85;;
25153;SDS011;47555;51.038;6.280;2022-07-12T09:33:02;6.60;;;3.50;;
25153;SDS011;47555;51.038;6.280;2022-07-12T09:38:38;3.33;;;2.83;;
25153;SDS011;47555;51.038;6.280;2022-07-12T09:41:16;3.42;;;2.88;;
25153;SDS011;47555;51.038;6.280;2022-07-12T09:43:42;4.20;;;3.17;;
25153;SDS011;47555;51.038;6.280;2022-07-12T09:46:09;3.13;;;2.92;;
25153;SDS011;47555;51.038;6.280;2022-07-12T09:48:35;4.70;;;3.00;;
25153;SDS011;47555;51.038;6.280;2022-07-12T09:51:02;3.72;;;2.60;;
25153;SDS011;47555;51.038;6.280;2022-07-12T09:53:30;2.80;;;2.60;;
25153;SDS011;47555;51.038;6.280;2022-07-12T09:55:58;3.03;;;2.80;;
25153;SDS011;47555;51.038;6.280;2022-07-12T10:00:58;3.63;;;2.90;;
25153;SDS011;47555;51.038;6.280;2022-07-12T10:03:28;2.85;;;2.65;;
25153;SDS011;47555;51.038;6.280;2022-07-12T10:05:56;2.72;;;2.30;;
25153;SDS011;47555;51.038;6.280;2022-07-12T10:08:30;2.40;;;2.20;;
25153;SDS011;47555;51.038;6.280;2022-07-12T10:10:56;3.90;;;2.20;;
25153;SDS011;47555;51.038;6.280;2022-07-12T10:13:22;2.38;;;1.80;;
25153;SDS011;47555;51.038;6.280;2022-07-12T10:15:49;2.97;;;2.03;;
25153;SDS011;47555;51.038;6.280;2022-07-12T10:18:16;2.00;;;1.80;;
25153;SDS011;47555;51.038;6.280;2022-07-12T10:20:49;2.45;;;1.80;;
25153;SDS011;47555;51.038;6.280;2022-07-12T10:23:31;2.25;;;1.70;;
25153;SDS011;47555;51.038;6.280;2022-07-12T10:26:07;2.90;;;1.40;;
25153;SDS011;47555;51.038;6.280;2022-07-12T10:31:33;1.50;;;1.40;;
25153;SDS011;47555;51.038;6.280;2022-07-12T10:34:13;11.10;;;2.00;;
25153;SDS011;47555;51.038;6.280;2022-07-12T10:39:21;1.58;;;1.23;;
25153;SDS011;47555;51.038;6.280;2022-07-12T10:44:34;1.20;;;1.10;;
25153;SDS011;47555;51.038;6.280;2022-07-12T10:47:11;1.45;;;1.35;;
25153;SDS011;47555;51.038;6.280;2022-07-12T10:49:41;1.48;;;1.35;;
25153;SDS011;47555;51.038;6.280;2022-07-12T10:52:13;2.95;;;1.63;;
25153;SDS011;47555;51.038;6.280;2022-07-12T10:57:06;2.97;;;1.55;;
25153;SDS011;47555;51.038;6.280;2022-07-12T10:59:33;2.08;;;1.70;;
25153;SDS011;47555;51.038;6.280;2022-07-12T11:01:59;1.48;;;1.38;;
25153;SDS011;47555;51.038;6.280;2022-07-12T11:04:25;2.80;;;1.60;;
25153;SDS011;47555;51.038;6.280;2022-07-12T11:06:52;1.98;;;1.73;;
25153;SDS011;47555;51.038;6.280;2022-07-12T11:09:21;1.70;;;1.60;;
25153;SDS011;47555;51.038;6.280;2022-07-12T11:11:48;1.50;;;1.40;;
25153;SDS011;47555;51.038;6.280;2022-07-12T11:16:47;3.13;;;1.38;;
25153;SDS011;47555;51.038;6.280;2022-07-12T11:19:14;3.10;;;1.90;;
25153;SDS011;47555;51.038;6.280;2022-07-12T11:21:44;2.42;;;1.65;;
25153;SDS011;47555;51.038;6.280;2022-07-12T11:24:17;1.80;;;1.70;;
25153;SDS011;47555;51.038;6.280;2022-07-12T11:26:44;1.48;;;1.30;;
25153;SDS011;47555;51.038;6.280;2022-07-12T11:29:11;2.38;;;1.50;;
25153;SDS011;47555;51.038;6.280;2022-07-12T11:31:37;2.28;;;1.63;;
25153;SDS011;47555;51.038;6.280;2022-07-12T11:34:02;2.00;;;1.55;;
25153;SDS011;47555;51.038;6.280;2022-07-12T11:36:28;1.80;;;1.67;;
25153;SDS011;47555;51.038;6.280;2022-07-12T11:38:55;1.50;;;1.40;;
25153;SDS011;47555;51.038;6.280;2022-07-12T11:41:21;2.25;;;1.42;;
25153;SDS011;47555;51.038;6.280;2022-07-12T11:43:48;1.48;;;1.33;;
25153;SDS011;47555;51.038;6.280;2022-07-12T11:46:14;1.52;;;1.42;;
25153;SDS011;47555;51.038;6.280;2022-07-12T11:48:41;1.15;;;0.98;;
25153;SDS011;47555;51.038;6.280;2022-07-12T11:51:08;1.88;;;1.45;;
25153;SDS011;47555;51.038;6.280;2022-07-12T11:53:35;2.47;;;1.40;;
25153;SDS011;47555;51.038;6.280;2022-07-12T11:56:02;2.13;;;1.50;;
25153;SDS011;47555;51.038;6.280;2022-07-12T11:58:29;1.55;;;1.45;;
25153;SDS011;47555;51.038;6.280;2022-07-12T12:00:57;3.58;;;1.70;;
25153;SDS011;47555;51.038;6.280;2022-07-12T12:03:23;3.78;;;1.40;;
25153;SDS011;47555;51.038;6.280;2022-07-12T12:05:50;1.67;;;1.40;;
25153;SDS011;47555;51.038;6.280;2022-07-12T12:08:18;1.60;;;1.50;;
25153;SDS011;47555;51.038;6.280;2022-07-12T12:10:52;1.58;;;1.33;;
25153;SDS011;47555;51.038;6.280;2022-07-12T12:13:23;3.78;;;1.60;;
25153;SDS011;47555;51.038;6.280;2022-07-12T12:15:59;2.05;;;1.80;;
25153;SDS011;47555;51.038;6.280;2022-07-12T12:18:30;2.60;;;1.55;;
25153;SDS011;47555;51.038;6.280;2022-07-12T12:21:07;1.77;;;1.50;;
25153;SDS011;47555;51.038;6.280;2022-07-12T12:23:34;3.60;;;1.65;;
25153;SDS011;47555;51.038;6.280;2022-07-12T12:26:11;2.20;;;1.60;;
25153;SDS011;47555;51.038;6.280;2022-07-12T12:28:45;3.22;;;2.00;;
25153;SDS011;47555;51.038;6.280;2022-07-12T12:31:11;8.98;;;1.95;;
25153;SDS011;47555;51.038;6.280;2022-07-12T12:33:39;2.85;;;1.83;;
25153;SDS011;47555;51.038;6.280;2022-07-12T12:36:15;3.05;;;1.63;;
25153;SDS011;47555;51.038;6.280;2022-07-12T12:38:45;3.53;;;1.73;;
25153;SDS011;47555;51.038;6.280;2022-07-12T12:41:12;2.00;;;1.80;;
25153;SDS011;47555;51.038;6.280;2022-07-12T12:43:38;3.15;;;1.80;;
25153;SDS011;47555;51.038;6.280;2022-07-12T12:46:05;2.55;;;1.60;;
25153;SDS011;47555;51.038;6.280;2022-07-12T12:48:32;2.17;;;1.58;;
25153;SDS011;47555;51.038;6.280;2022-07-12T12:53:28;2.30;;;1.70;;
25153;SDS011;47555;51.038;6.280;2022-07-12T12:55:55;1.65;;;1.55;;
25153;SDS011;47555;51.038;6.280;2022-07-12T12:58:22;1.85;;;1.70;;
25153;SDS011;47555;51.038;6.280;2022-07-12T13:00:50;2.97;;;1.90;;
25153;SDS011;47555;51.038;6.280;2022-07-12T13:03:17;3.47;;;1.83;;
25153;SDS011;47555;51.038;6.280;2022-07-12T13:05:44;2.72;;;1.90;;
25153;SDS011;47555;51.038;6.280;2022-07-12T13:08:12;2.00;;;1.75;;
25153;SDS011;47555;51.038;6.280;2022-07-12T13:10:38;2.13;;;1.83;;
25153;SDS011;47555;51.038;6.280;2022-07-12T13:13:05;4.03;;;2.10;;
25153;SDS011;47555;51.038;6.280;2022-07-12T13:15:32;2.08;;;1.65;;
25153;SDS011;47555;51.038;6.280;2022-07-12T13:17:58;3.58;;;1.83;;
25153;SDS011;47555;51.038;6.280;2022-07-12T13:20:24;3.83;;;2.20;;
25153;SDS011;47555;51.038;6.280;2022-07-12T13:22:51;3.75;;;1.55;;
25153;SDS011;47555;51.038;6.280;2022-07-12T13:25:17;2.10;;;1.60;;
25153;SDS011;47555;51.038;6.280;2022-07-12T13:27:43;1.95;;;1.75;;
25153;SDS011;47555;51.038;6.280;2022-07-12T13:30:10;1.80;;;1.58;;
25153;SDS011;47555;51.038;6.280;2022-07-12T13:32:38;2.10;;;1.90;;
25153;SDS011;47555;51.038;6.280;2022-07-12T13:35:05;2.38;;;1.90;;
25153;SDS011;47555;51.038;6.280;2022-07-12T13:37:32;4.45;;;1.95;;
25153;SDS011;47555;51.038;6.280;2022-07-12T13:39:58;2.97;;;1.73;;
25153;SDS011;47555;51.038;6.280;2022-07-12T13:42:42;2.70;;;1.70;;
25153;SDS011;47555;51.038;6.280;2022-07-12T13:45:18;4.10;;;1.50;;
25153;SDS011;47555;51.038;6.280;2022-07-12T13:47:45;4.03;;;1.90;;
25153;SDS011;47555;51.038;6.280;2022-07-12T13:50:12;2.22;;;1.70;;
25153;SDS011;47555;51.038;6.280;2022-07-12T13:52:41;1.63;;;1.52;;
25153;SDS011;47555;51.038;6.280;2022-07-12T13:55:08;2.42;;;1.75;;
25153;SDS011;47555;51.038;6.280;2022-07-12T13:57:35;1.90;;;1.80;;
25153;SDS011;47555;51.038;6.280;2022-07-12T14:00:03;3.05;;;1.77;;
25153;SDS011;47555;51.038;6.280;2022-07-12T14:02:30;2.10;;;1.95;;
25153;SDS011;47555;51.038;6.280;2022-07-12T14:04:55;2.15;;;1.55;;
25153;SDS011;47555;51.038;6.280;2022-07-12T14:07:21;1.85;;;1.67;;
25153;SDS011;47555;51.038;6.280;2022-07-12T14:09:47;2.88;;;1.90;;
25153;SDS011;47555;51.038;6.280;2022-07-12T14:12:12;1.92;;;1.60;;
25153;SDS011;47555;51.038;6.280;2022-07-12T14:14:38;2.28;;;1.52;;
25153;SDS011;47555;51.038;6.280;2022-07-12T14:17:22;2.50;;;1.60;;
25153;SDS011;47555;51.038;6.280;2022-07-12T14:19:48;1.73;;;1.63;;
25153;SDS011;47555;51.038;6.280;2022-07-12T14:22:13;1.75;;;1.60;;
25153;SDS011;47555;51.038;6.280;2022-07-12T14:24:39;1.88;;;1.60;;
25153;SDS011;47555;51.038;6.280;2022-07-12T14:27:05;4.00;;;1.63;;
25153;SDS011;47555;51.038;6.280;2022-07-12T14:29:31;1.77;;;1.40;;
25153;SDS011;47555;51.038;6.280;2022-07-12T14:31:56;1.88;;;1.30;;
25153;SDS011;47555;51.038;6.280;2022-07-12T14:34:22;3.75;;;1.50;;
25153;SDS011;47555;51.038;6.280;2022-07-12T14:36:48;1.40;;;1.30;;
25153;SDS011;47555;51.038;6.280;2022-07-12T14:39:14;1.48;;;1.38;;
25153;SDS011;47555;51.038;6.280;2022-07-12T14:41:39;1.40;;;1.30;;
25153;SDS011;47555;51.038;6.280;2022-07-12T14:44:05;1.95;;;1.30;;
25153;SDS011;47555;51.038;6.280;2022-07-12T14:46:32;3.05;;;1.42;;
25153;SDS011;47555;51.038;6.280;2022-07-12T14:48:58;1.40;;;1.30;;
25153;SDS011;47555;51.038;6.280;2022-07-12T14:51:23;1.95;;;1.30;;
25153;SDS011;47555;51.038;6.280;2022-07-12T14:53:49;3.03;;;1.27;;
25153;SDS011;47555;51.038;6.280;2022-07-12T14:56:17;1.48;;;1.20;;
25153;SDS011;47555;51.038;6.280;2022-07-12T14:58:43;1.85;;;1.33;;
25153;SDS011;47555;51.038;6.280;2022-07-12T15:01:09;1.88;;;1.17;;
25153;SDS011;47555;51.038;6.280;2022-07-12T15:03:35;1.30;;;1.20;;
25153;SDS011;47555;51.038;6.280;2022-07-12T15:06:00;1.27;;;1.17;;
25153;SDS011;47555;51.038;6.280;2022-07-12T15:08:26;1.75;;;1.20;;
25153;SDS011;47555;51.038;6.280;2022-07-12T15:10:51;1.40;;;1.27;;